Time;durP1;ratioP1;P1;durP2;ratioP2;P2;SDS_P1;SDS_P2;PMS_P1;PMS_P2;Temp;Humidity;BMP_temperature;BMP_pressure;BME280_temperature;BME280_humidity;BME280_pressure;Samples;Min_cycle;Max_cycle;Signal;HPM_P1;HPM_P2
2022/09/13 00:01:01;;;;;;;3.13;2.83;;;;;;;-142.91;100.00;56616.03;4970092;28;20207;-64
2022/09/13 00:03:28;;;;;;;3.63;3.33;;;;;;;-142.91;100.00;56616.03;4971425;28;20765;-67
2022/09/13 00:05:55;;;;;;;4.25;2.85;;;;;;;-142.91;100.00;56616.03;4968734;28;20228;-66
2022/09/13 00:08:23;;;;;;;2.88;2.67;;;;;;;-142.91;100.00;56616.03;4972411;28;20209;-66
2022/09/13 00:10:50;;;;;;;3.17;2.97;;;;;;;-142.91;100.00;56616.03;4971375;28;20666;-66
2022/09/13 00:13:17;;;;;;;6.28;3.03;;;;;;;-142.91;100.00;56616.03;4975297;28;20306;-65
2022/09/13 00:15:45;;;;;;;3.65;3.00;;;;;;;-142.91;100.00;56616.03;4974253;28;20212;-66
2022/09/13 00:18:12;;;;;;;3.17;2.97;;;;;;;-142.91;100.00;56616.03;4974118;28;20356;-65
2022/09/13 00:20:39;;;;;;;2.95;2.85;;;;;;;-142.91;100.00;56616.03;4975013;28;20946;-65
2022/09/13 00:23:05;;;;;;;2.70;2.58;;;;;;;-142.91;100.00;56616.03;4973069;28;21009;-65
2022/09/13 00:25:34;;;;;;;3.35;3.08;;;;;;;-142.91;100.00;56616.03;4973833;28;20215;-65
2022/09/13 00:28:00;;;;;;;3.78;2.97;;;;;;;-142.91;100.00;56616.03;4974910;28;20203;-65
2022/09/13 00:30:27;;;;;;;3.72;3.53;;;;;;;-142.91;100.00;56616.03;4973669;28;20240;-64
2022/09/13 00:32:54;;;;;;;2.65;2.50;;;;;;;-142.91;100.00;56616.03;4974793;28;20250;-65
2022/09/13 00:35:21;;;;;;;3.75;3.13;;;;;;;-142.91;100.00;56616.03;4973156;28;20274;-67
2022/09/13 00:37:48;;;;;;;3.15;2.95;;;;;;;-142.91;100.00;56616.03;4973825;28;20290;-64
2022/09/13 00:40:14;;;;;;;3.20;3.00;;;;;;;-142.91;100.00;56616.03;4972448;28;20216;-66
2022/09/13 00:42:42;;;;;;;3.72;3.28;;;;;;;-142.91;100.00;56616.03;4976287;28;20258;-65
2022/09/13 00:45:17;;;;;;;4.45;3.08;;;;;;;-142.91;100.00;56616.03;4973199;28;21227;-65
2022/09/13 00:47:49;;;;;;;4.55;3.13;;;;;;;-142.91;100.00;56616.03;4971539;28;20200;-65
2022/09/13 00:50:20;;;;;;;3.60;3.38;;;;;;;-142.91;100.00;56616.03;4970830;28;21183;-65
2022/09/13 00:52:52;;;;;;;3.58;3.35;;;;;;;-142.91;100.00;56616.03;4973778;28;20207;-67
2022/09/13 00:55:24;;;;;;;3.45;3.25;;;;;;;-142.91;100.00;56616.03;4974191;28;20271;-66
2022/09/13 00:57:53;;;;;;;3.83;3.22;;;;;;;-142.91;100.00;56616.03;4968699;28;20243;-65
2022/09/13 01:00:21;;;;;;;3.40;3.20;;;;;;;-142.91;100.00;56616.03;4971896;28;20204;-64
2022/09/13 01:02:53;;;;;;;3.50;3.28;;;;;;;-142.91;100.00;56616.03;4974091;28;20208;-65
2022/09/13 01:05:23;;;;;;;4.10;3.80;;;;;;;-142.91;100.00;56616.03;4973848;28;20216;-66
2022/09/13 01:07:50;;;;;;;4.75;3.70;;;;;;;-142.91;100.00;56616.03;4972338;28;20227;-66
2022/09/13 01:10:18;;;;;;;4.78;3.10;;;;;;;-142.91;100.00;56616.03;4974596;28;20727;-67
2022/09/13 01:12:52;;;;;;;3.75;3.42;;;;;;;-142.91;100.00;56616.03;4974426;28;20694;-67
2022/09/13 01:15:20;;;;;;;3.60;3.40;;;;;;;-142.91;100.00;56616.03;4974402;28;20215;-64
2022/09/13 01:17:48;;;;;;;5.03;3.00;;;;;;;-142.91;100.00;56616.03;4972885;28;20235;-66
2022/09/13 01:20:15;;;;;;;3.25;3.00;;;;;;;-142.91;100.00;56616.03;4973527;28;20212;-65
2022/09/13 01:23:08;;;;;;;3.72;3.42;;;;;;;-142.91;100.00;56616.03;4973915;28;20883;-65
2022/09/13 01:26:10;;;;;;;3.60;3.40;;;;;;;-142.91;100.00;56616.03;4973523;28;20232;-65
2022/09/13 01:29:05;;;;;;;3.60;3.15;;;;;;;-142.91;100.00;56616.03;4971833;28;20212;-65
2022/09/13 01:31:39;;;;;;;3.65;3.38;;;;;;;-142.91;100.00;56616.03;4973311;28;20354;-65
2022/09/13 01:34:27;;;;;;;3.30;3.10;;;;;;;-142.91;100.00;56616.03;4973406;28;20212;-66
2022/09/13 01:37:10;;;;;;;4.82;3.03;;;;;;;-142.91;100.00;56616.03;4974887;28;20578;-64
2022/09/13 01:39:59;;;;;;;3.90;3.70;;;;;;;-142.91;100.00;56616.03;4971988;28;20294;-65
2022/09/13 01:42:35;;;;;;;4.38;4.03;;;;;;;-142.91;100.00;56616.03;4973333;28;20339;-66
2022/09/13 01:45:20;;;;;;;3.65;3.35;;;;;;;-142.91;100.00;56616.03;4973087;28;20897;-66
2022/09/13 01:47:54;;;;;;;3.55;3.35;;;;;;;-142.91;100.00;56616.03;4973182;28;20236;-63
2022/09/13 01:50:26;;;;;;;5.25;3.38;;;;;;;-142.91;100.00;56616.03;4971811;28;20205;-64
2022/09/13 01:52:56;;;;;;;5.28;3.13;;;;;;;-142.91;100.00;56616.03;4971736;28;20204;-64
2022/09/13 01:55:30;;;;;;;7.13;4.45;;;;;;;-142.91;100.00;56616.03;4974348;28;20685;-64
2022/09/13 01:58:08;;;;;;;5.35;4.07;;;;;;;-142.91;100.00;56616.03;4973450;28;20623;-66
2022/09/13 02:00:40;;;;;;;6.43;3.55;;;;;;;-142.91;100.00;56616.03;4973173;28;20236;-65
2022/09/13 02:03:12;;;;;;;4.25;3.85;;;;;;;-142.91;100.00;56616.03;4974330;28;20204;-66
2022/09/13 02:05:46;;;;;;;4.78;4.00;;;;;;;-142.91;100.00;56616.03;4971768;28;20227;-66
2022/09/13 02:08:17;;;;;;;15.13;6.00;;;;;;;-142.91;100.00;56616.03;4971895;28;22204;-65
2022/09/13 02:10:49;;;;;;;27.48;6.47;;;;;;;-142.91;100.00;56616.03;4974610;28;20231;-65
2022/09/13 02:13:22;;;;;;;7.80;4.22;;;;;;;-142.91;100.00;56616.03;4972907;28;20697;-65
2022/09/13 02:15:54;;;;;;;6.00;4.15;;;;;;;-142.91;100.00;56616.03;4972358;28;20208;-64
2022/09/13 02:18:27;;;;;;;4.65;3.58;;;;;;;-142.91;100.00;56616.03;4972866;28;20225;-64
2022/09/13 02:21:00;;;;;;;4.53;3.83;;;;;;;-142.91;100.00;56616.03;4973021;28;20239;-64
2022/09/13 02:23:34;;;;;;;5.32;3.78;;;;;;;-142.91;100.00;56616.03;4971311;28;20674;-71
2022/09/13 02:26:04;;;;;;;6.00;3.67;;;;;;;-142.91;100.00;56616.03;4973439;28;20212;-64
2022/09/13 02:28:36;;;;;;;3.95;3.63;;;;;;;-142.91;100.00;56616.03;4970440;28;20258;-64
2022/09/13 02:31:07;;;;;;;3.78;3.47;;;;;;;-142.91;100.00;56616.03;4972212;28;20215;-65
2022/09/13 02:33:39;;;;;;;4.50;4.10;;;;;;;-142.91;100.00;56616.03;4969324;28;20753;-65
2022/09/13 02:36:09;;;;;;;3.50;3.17;;;;;;;-142.91;100.00;56616.03;4971654;28;20317;-65
2022/09/13 02:38:44;;;;;;;3.50;3.20;;;;;;;-142.91;100.00;56616.03;4971844;28;20232;-65
2022/09/13 02:41:17;;;;;;;7.28;3.72;;;;;;;-142.91;100.00;56616.03;4971196;28;20243;-65
2022/09/13 02:43:48;;;;;;;4.03;3.70;;;;;;;-142.91;100.00;56616.03;4972629;28;20652;-65
2022/09/13 02:46:27;;;;;;;3.38;3.15;;;;;;;-142.91;100.00;56616.03;4972063;28;20708;-66
2022/09/13 02:49:00;;;;;;;3.58;3.38;;;;;;;-142.91;100.00;56616.03;4971455;28;20921;-64
2022/09/13 02:51:33;;;;;;;5.50;3.78;;;;;;;-142.91;100.00;56616.03;4971468;28;20322;-65
2022/09/13 02:54:09;;;;;;;4.25;3.85;;;;;;;-142.91;100.00;56616.03;4970740;28;20216;-64
2022/09/13 02:56:46;;;;;;;3.35;3.15;;;;;;;-142.91;100.00;56616.03;4970754;28;20486;-65
2022/09/13 02:59:16;;;;;;;3.42;3.13;;;;;;;-142.91;100.00;56616.03;4970956;28;20234;-65
2022/09/13 03:01:49;;;;;;;3.65;3.40;;;;;;;-142.91;100.00;56616.03;4970720;28;20783;-65
2022/09/13 03:04:17;;;;;;;3.60;3.40;;;;;;;-142.91;100.00;56616.03;5031346;22;20235;-64
2022/09/13 03:06:44;;;;;;;4.00;3.08;;;;;;;-142.91;100.00;56616.03;5006772;28;20718;-63
2022/09/13 03:09:12;;;;;;;4.07;3.42;;;;;;;-142.91;100.00;56616.03;5006645;28;20207;-64
2022/09/13 03:12:02;;;;;;;3.22;3.03;;;;;;;-142.91;100.00;56616.03;5007416;28;20206;-65
2022/09/13 03:14:40;;;;;;;3.58;3.33;;;;;;;-142.91;100.00;56616.03;5008595;28;21911;-65
2022/09/13 03:17:19;;;;;;;3.33;3.03;;;;;;;-142.91;100.00;56616.03;5007420;28;20308;-64
2022/09/13 03:20:05;;;;;;;4.50;3.08;;;;;;;-142.91;100.00;56616.03;5009365;28;20202;-66
2022/09/13 03:23:02;;;;;;;4.03;3.67;;;;;;;-142.91;100.00;56616.03;5009568;28;20293;-66
2022/09/13 03:25:42;;;;;;;3.75;3.50;;;;;;;-142.91;100.00;56616.03;5009133;28;20832;-67
2022/09/13 03:28:20;;;;;;;3.60;3.40;;;;;;;-142.91;100.00;56616.03;5007207;28;20194;-67
2022/09/13 03:30:53;;;;;;;3.63;3.33;;;;;;;-142.91;100.00;56616.03;5008761;28;20234;-65
2022/09/13 03:33:28;;;;;;;5.68;3.38;;;;;;;-142.91;100.00;56616.03;5009285;28;20655;-65
2022/09/13 03:36:04;;;;;;;3.30;3.10;;;;;;;-142.91;100.00;56616.03;5008749;28;20206;-65
2022/09/13 03:38:35;;;;;;;3.42;2.85;;;;;;;-142.91;100.00;56616.03;5007887;28;20296;-66
2022/09/13 03:41:07;;;;;;;4.40;2.97;;;;;;;-142.91;100.00;56616.03;5009358;28;20213;-66
2022/09/13 03:43:39;;;;;;;4.43;2.85;;;;;;;-142.91;100.00;56616.03;5008218;28;20199;-66
2022/09/13 03:46:09;;;;;;;4.55;3.47;;;;;;;-142.91;100.00;56616.03;5008525;28;20203;-67
2022/09/13 03:48:39;;;;;;;5.38;3.67;;;;;;;-142.91;100.00;56616.03;5008357;28;20203;-66
2022/09/13 03:51:08;;;;;;;4.55;2.75;;;;;;;-142.91;100.00;56616.03;5008889;28;20203;-66
2022/09/13 03:53:39;;;;;;;5.18;3.50;;;;;;;-142.91;100.00;56616.03;5008492;28;20195;-65
2022/09/13 03:56:13;;;;;;;4.78;3.63;;;;;;;-142.91;100.00;56616.03;5009795;28;20211;-64
2022/09/13 03:58:40;;;;;;;12.10;10.38;;;;;;;-142.91;100.00;56616.03;5008419;28;20746;-66
2022/09/13 04:01:09;;;;;;;11.55;9.35;;;;;;;-142.91;100.00;56616.03;5008888;28;20203;-66
2022/09/13 04:03:36;;;;;;;7.47;6.78;;;;;;;-142.91;100.00;56616.03;5008749;28;20234;-69
2022/09/13 04:06:04;;;;;;;4.57;4.28;;;;;;;-142.91;100.00;56616.03;5008054;28;20230;-63
2022/09/13 04:08:33;;;;;;;3.72;3.53;;;;;;;-142.91;100.00;56616.03;5007726;28;20207;-63
2022/09/13 04:11:00;;;;;;;6.88;3.65;;;;;;;-142.91;100.00;56616.03;5007805;28;21541;-64
2022/09/13 04:13:27;;;;;;;3.22;3.03;;;;;;;-142.91;100.00;56616.03;5006715;28;20239;-65
2022/09/13 04:15:54;;;;;;;3.80;3.53;;;;;;;-142.91;100.00;56616.03;5008952;28;20675;-66
2022/09/13 04:18:21;;;;;;;3.75;3.55;;;;;;;-142.91;100.00;56616.03;5008404;28;20245;-67
2022/09/13 04:20:54;;;;;;;6.13;3.28;;;;;;;-142.91;100.00;56616.03;5008370;28;20264;-65
2022/09/13 04:23:20;;;;;;;4.53;4.00;;;;;;;-142.91;100.00;56616.03;5007594;28;20547;-67
2022/09/13 04:25:50;;;;;;;30.30;19.30;;;;;;;-142.91;100.00;56616.03;5008805;28;20693;-66
2022/09/13 04:28:17;;;;;;;11.23;8.60;;;;;;;-142.91;100.00;56616.03;5008037;28;20286;-64
2022/09/13 04:30:44;;;;;;;8.05;4.93;;;;;;;-142.91;100.00;56616.03;5008837;28;20265;-64
2022/09/13 04:33:11;;;;;;;5.47;4.25;;;;;;;-142.91;100.00;56616.03;5008103;28;20202;-64
2022/09/13 04:35:39;;;;;;;3.72;3.53;;;;;;;-142.91;100.00;56616.03;5008314;28;20214;-66
2022/09/13 04:38:06;;;;;;;5.65;4.03;;;;;;;-142.91;100.00;56616.03;5006471;28;20223;-66
2022/09/13 04:40:33;;;;;;;18.83;13.77;;;;;;;-142.91;100.00;56616.03;5008200;28;20315;-65
2022/09/13 04:43:02;;;;;;;34.17;24.27;;;;;;;-142.91;100.00;56616.03;5006985;28;20201;-64
2022/09/13 04:45:29;;;;;;;14.20;10.75;;;;;;;-142.91;100.00;56616.03;5008419;28;20234;-65
2022/09/13 04:47:56;;;;;;;7.82;6.57;;;;;;;-142.91;100.00;56616.03;5006810;28;20203;-64
2022/09/13 04:50:24;;;;;;;6.80;5.00;;;;;;;-142.91;100.00;56616.03;5007104;28;20371;-64
2022/09/13 04:52:54;;;;;;;10.15;5.32;;;;;;;-142.91;100.00;56616.03;5008484;28;20207;-63
2022/09/13 04:55:21;;;;;;;5.85;4.47;;;;;;;-142.91;100.00;56616.03;5007539;28;20199;-64
2022/09/13 04:57:47;;;;;;;4.72;4.32;;;;;;;-142.91;100.00;56616.03;5009038;28;20209;-64
2022/09/13 05:00:16;;;;;;;5.60;3.90;;;;;;;-142.91;100.00;56616.03;5011839;28;20227;-65
2022/09/13 05:02:43;;;;;;;6.25;4.50;;;;;;;-142.91;100.00;56616.03;5010112;28;20304;-65
2022/09/13 05:05:10;;;;;;;9.88;3.90;;;;;;;-142.91;100.00;56616.03;5010455;28;22311;-63
2022/09/13 05:07:36;;;;;;;11.80;4.35;;;;;;;-142.91;100.00;56616.03;5011816;28;20556;-62
2022/09/13 05:10:04;;;;;;;5.65;3.78;;;;;;;-142.91;100.00;56616.03;5009391;28;20284;-67
2022/09/13 05:12:30;;;;;;;3.78;3.47;;;;;;;-142.91;100.00;56616.03;5010340;28;20199;-67
2022/09/13 05:14:57;;;;;;;3.63;3.42;;;;;;;-142.91;100.00;56616.03;5011271;28;20301;-66
2022/09/13 05:17:26;;;;;;;4.18;3.40;;;;;;;-142.91;100.00;56616.03;5011219;28;20203;-65
2022/09/13 05:19:52;;;;;;;3.65;3.45;;;;;;;-142.91;100.00;56616.03;5010615;28;20229;-64
2022/09/13 05:22:19;;;;;;;3.85;3.42;;;;;;;-142.91;100.00;56616.03;5010582;28;20222;-64
2022/09/13 05:24:46;;;;;;;3.20;2.90;;;;;;;-142.91;100.00;56616.03;5010689;28;20756;-66
2022/09/13 05:27:13;;;;;;;3.03;2.72;;;;;;;-142.91;100.00;56616.03;5012740;28;20210;-67
2022/09/13 05:29:39;;;;;;;5.28;2.75;;;;;;;-142.91;100.00;56616.03;5010245;28;20257;-64
2022/09/13 05:32:06;;;;;;;3.25;2.42;;;;;;;-142.91;100.00;56616.03;5011463;28;20206;-64
2022/09/13 05:34:34;;;;;;;4.80;3.00;;;;;;;-142.91;100.00;56616.03;5011862;28;20212;-66
2022/09/13 05:37:01;;;;;;;4.03;2.40;;;;;;;-142.91;100.00;56616.03;5011082;28;20209;-64
2022/09/13 05:39:28;;;;;;;3.20;2.90;;;;;;;-142.91;100.00;56616.03;5009508;28;20233;-67
2022/09/13 05:41:55;;;;;;;3.95;3.65;;;;;;;-142.91;100.00;56616.03;5011574;28;20254;-65
2022/09/13 05:44:21;;;;;;;8.48;6.72;;;;;;;-142.91;100.00;56616.03;5010991;28;20210;-66
2022/09/13 05:46:48;;;;;;;6.53;3.88;;;;;;;-142.91;100.00;56616.03;5009162;28;20674;-65
2022/09/13 05:49:15;;;;;;;9.98;3.53;;;;;;;-142.91;100.00;56616.03;5010014;28;20203;-65
2022/09/13 05:51:44;;;;;;;5.28;3.58;;;;;;;-142.91;100.00;56616.03;5009331;28;20211;-67
2022/09/13 05:54:12;;;;;;;3.88;3.47;;;;;;;-142.91;100.00;56616.03;5009711;28;20563;-65
2022/09/13 05:56:39;;;;;;;6.30;3.83;;;;;;;-142.91;100.00;56616.03;5008737;28;20211;-67
2022/09/13 05:59:07;;;;;;;3.08;2.83;;;;;;;-142.91;100.00;56616.03;5008094;28;20227;-66
2022/09/13 06:01:34;;;;;;;2.75;2.60;;;;;;;-142.91;100.00;56616.03;5009430;28;20207;-64
2022/09/13 06:04:01;;;;;;;3.20;2.88;;;;;;;-142.91;100.00;56616.03;5010715;28;20243;-64
2022/09/13 06:06:28;;;;;;;4.25;3.13;;;;;;;-142.91;100.00;56616.03;5012550;28;20231;-66
2022/09/13 06:08:57;;;;;;;5.75;2.75;;;;;;;-142.91;100.00;56616.03;5009925;28;20199;-66
2022/09/13 06:11:25;;;;;;;2.50;2.30;;;;;;;-142.91;100.00;56616.03;5010849;28;20214;-65
2022/09/13 06:13:53;;;;;;;7.20;2.95;;;;;;;-142.91;100.00;56616.03;5009715;28;20219;-64
2022/09/13 06:16:20;;;;;;;8.00;2.88;;;;;;;-142.91;100.00;56616.03;5009688;28;20305;-67
2022/09/13 06:18:46;;;;;;;3.75;2.53;;;;;;;-142.91;100.00;56616.03;5009933;28;20791;-66
2022/09/13 06:21:16;;;;;;;2.95;2.70;;;;;;;-142.91;100.00;56616.03;5009388;28;20572;-67
2022/09/13 06:23:43;;;;;;;4.30;2.85;;;;;;;-142.91;100.00;56616.03;5012454;28;20226;-67
2022/09/13 06:26:13;;;;;;;4.25;2.80;;;;;;;-142.91;100.00;56616.03;5011280;28;20698;-65
2022/09/13 06:28:41;;;;;;;5.47;3.80;;;;;;;-142.91;100.00;56616.03;5008249;28;20670;-66
2022/09/13 06:31:10;;;;;;;4.68;4.22;;;;;;;-142.91;100.00;56616.03;5009772;28;20730;-65
2022/09/13 06:33:39;;;;;;;4.68;2.67;;;;;;;-142.91;100.00;56616.03;5010459;28;20231;-64
2022/09/13 06:36:08;;;;;;;4.78;3.38;;;;;;;-142.91;100.00;56616.03;5010498;28;20206;-67
2022/09/13 06:38:35;;;;;;;5.03;3.20;;;;;;;-142.91;100.00;56616.03;5008719;28;20207;-66
2022/09/13 06:41:02;;;;;;;4.25;2.42;;;;;;;-142.91;100.00;56616.03;5011520;28;20202;-65
2022/09/13 06:43:31;;;;;;;1.90;1.80;;;;;;;-142.91;100.00;56616.03;5009770;28;21522;-66
2022/09/13 06:46:01;;;;;;;2.90;2.58;;;;;;;-142.91;100.00;56616.03;5010657;28;20260;-66
2022/09/13 06:48:31;;;;;;;2.47;2.28;;;;;;;-142.91;100.00;56616.03;5008733;28;20218;-66
2022/09/13 06:50:59;;;;;;;2.42;2.28;;;;;;;-142.91;100.00;56616.03;5007981;28;20209;-67
2022/09/13 06:53:27;;;;;;;3.35;2.00;;;;;;;-142.91;100.00;56616.03;5009094;28;20268;-66
2022/09/13 06:56:01;;;;;;;10.13;3.08;;;;;;;-142.91;100.00;56616.03;5009367;28;20218;-66
2022/09/13 06:58:31;;;;;;;1.98;1.88;;;;;;;-142.91;100.00;56616.03;5009146;28;20275;-67
2022/09/13 07:01:13;;;;;;;2.60;2.33;;;;;;;-142.91;100.00;56616.03;5009698;28;20210;-66
2022/09/13 07:03:42;;;;;;;2.92;2.70;;;;;;;-142.91;100.00;56616.03;5009695;28;20238;-62
2022/09/13 07:06:13;;;;;;;3.58;2.40;;;;;;;-142.91;100.00;56616.03;5009185;28;22581;-66
2022/09/13 07:08:41;;;;;;;4.60;2.60;;;;;;;-142.91;100.00;56616.03;5009029;28;20204;-64
2022/09/13 07:11:09;;;;;;;2.97;2.85;;;;;;;-142.91;100.00;56616.03;5008531;28;20681;-65
2022/09/13 07:13:37;;;;;;;5.70;5.28;;;;;;;-142.91;100.00;56616.03;5008892;28;20203;-64
2022/09/13 07:16:06;;;;;;;4.70;4.30;;;;;;;-142.91;100.00;56616.03;5008415;28;20225;-64
2022/09/13 07:18:33;;;;;;;6.88;5.45;;;;;;;-142.91;100.00;56616.03;5006853;28;20272;-66
2022/09/13 07:21:02;;;;;;;5.63;4.97;;;;;;;-142.91;100.00;56616.03;5010314;28;20330;-65
2022/09/13 07:23:30;;;;;;;3.65;3.10;;;;;;;-142.91;100.00;56616.03;5009594;28;20932;-64
2022/09/13 07:26:03;;;;;;;6.97;4.65;;;;;;;-142.91;100.00;56616.03;5008385;28;20312;-63
2022/09/13 07:28:31;;;;;;;8.80;2.67;;;;;;;-142.91;100.00;56616.03;5008329;28;20305;-64
2022/09/13 07:31:05;;;;;;;2.60;2.38;;;;;;;-142.91;100.00;56616.03;5010411;28;20757;-65
2022/09/13 07:33:32;;;;;;;5.65;3.58;;;;;;;-142.91;100.00;56616.03;5009232;28;20855;-64
2022/09/13 07:36:00;;;;;;;3.33;3.03;;;;;;;-142.91;100.00;56616.03;5008802;28;20718;-63
2022/09/13 07:38:26;;;;;;;4.47;2.53;;;;;;;-142.91;100.00;56616.03;5008085;28;20584;-64
2022/09/13 07:40:55;;;;;;;3.15;2.83;;;;;;;-142.91;100.00;56616.03;5007915;28;20273;-64
2022/09/13 07:43:22;;;;;;;7.78;3.13;;;;;;;-142.91;100.00;56616.03;5008758;28;20338;-64
2022/09/13 07:45:56;;;;;;;4.15;3.30;;;;;;;-142.91;100.00;56616.03;5007927;28;20227;-65
2022/09/13 07:48:26;;;;;;;4.55;3.50;;;;;;;-142.91;100.00;56616.03;5007565;28;20528;-64
2022/09/13 07:51:00;;;;;;;9.95;3.72;;;;;;;-142.91;100.00;56616.03;5007041;28;20195;-64
2022/09/13 07:53:27;;;;;;;10.88;3.30;;;;;;;-142.91;100.00;56616.03;5007454;28;20234;-65
2022/09/13 07:55:59;;;;;;;2.72;2.53;;;;;;;-142.91;100.00;56616.03;5006258;28;20210;-65
2022/09/13 07:58:26;;;;;;;12.75;3.08;;;;;;;-142.91;100.00;56616.03;5005515;28;20931;-66
2022/09/13 08:00:53;;;;;;;2.88;2.45;;;;;;;-142.91;100.00;56616.03;5003252;28;20272;-65
2022/09/13 08:03:19;;;;;;;3.63;3.08;;;;;;;-142.91;100.00;56616.03;5001696;28;20234;-67
2022/09/13 08:05:47;;;;;;;7.78;4.88;;;;;;;-142.91;100.00;56616.03;5006376;28;20254;-66
2022/09/13 08:08:15;;;;;;;5.68;3.67;;;;;;;-142.91;100.00;56616.03;5003621;28;21150;-63
2022/09/13 08:10:41;;;;;;;4.70;3.20;;;;;;;-142.91;100.00;56616.03;5003212;28;20210;-65
2022/09/13 08:13:08;;;;;;;4.25;3.85;;;;;;;-142.91;100.00;56616.03;5003659;28;20663;-64
2022/09/13 08:15:35;;;;;;;5.45;3.67;;;;;;;-142.91;100.00;56616.03;5004988;28;20311;-64
2022/09/13 08:18:02;;;;;;;3.60;3.30;;;;;;;-142.91;100.00;56616.03;5006842;28;20289;-64
2022/09/13 08:20:28;;;;;;;2.75;2.50;;;;;;;-142.91;100.00;56616.03;5006529;28;20292;-66
2022/09/13 08:22:56;;;;;;;8.23;7.43;;;;;;;-142.91;100.00;56616.03;5007786;28;20646;-64
2022/09/13 08:25:23;;;;;;;9.25;7.30;;;;;;;-142.91;100.00;56616.03;5006686;28;20775;-63
2022/09/13 08:27:50;;;;;;;4.88;4.45;;;;;;;-142.91;100.00;56616.03;5007526;28;20199;-65
2022/09/13 08:30:17;;;;;;;3.22;2.92;;;;;;;-142.91;100.00;56616.03;5006956;28;20584;-66
2022/09/13 08:32:43;;;;;;;11.15;2.50;;;;;;;-142.91;100.00;56616.03;5009349;28;20210;-68
2022/09/13 08:35:11;;;;;;;2.50;2.40;;;;;;;-142.91;100.00;56616.03;5012105;28;20256;-68
2022/09/13 08:37:37;;;;;;;2.33;2.22;;;;;;;-142.91;100.00;56616.03;5009620;28;20206;-69
2022/09/13 08:40:07;;;;;;;3.30;2.20;;;;;;;-142.91;100.00;56616.03;5009255;28;20234;-67
2022/09/13 08:42:47;;;;;;;2.08;1.70;;;;;;;-142.91;100.00;56616.03;5009341;28;20210;-68
2022/09/13 08:45:15;;;;;;;1.98;1.88;;;;;;;-142.91;100.00;56616.03;5010065;28;20207;-67
2022/09/13 08:47:47;;;;;;;2.28;2.08;;;;;;;-142.91;100.00;56616.03;5009763;28;20271;-68
2022/09/13 08:50:19;;;;;;;2.47;2.05;;;;;;;-142.91;100.00;56616.03;5008654;28;20257;-68
2022/09/13 08:52:55;;;;;;;3.38;2.13;;;;;;;-142.91;100.00;56616.03;5009003;28;20264;-68
2022/09/13 08:55:28;;;;;;;2.85;1.70;;;;;;;-142.91;100.00;56616.03;5010402;28;20964;-68
2022/09/13 08:58:04;;;;;;;4.00;1.50;;;;;;;-142.91;100.00;56616.03;5009449;28;20503;-66
2022/09/13 09:00:38;;;;;;;2.88;1.77;;;;;;;-142.91;100.00;56616.03;5007271;28;20784;-69
2022/09/13 09:03:17;;;;;;;1.70;1.60;;;;;;;-142.91;100.00;56616.03;5009203;28;20238;-67
2022/09/13 09:05:47;;;;;;;5.47;3.28;;;;;;;-142.91;100.00;56616.03;5010079;28;20287;-67
2022/09/13 09:08:27;;;;;;;1.88;1.77;;;;;;;-142.91;100.00;56616.03;5010374;28;20290;-72
2022/09/13 09:10:59;;;;;;;2.35;2.25;;;;;;;-142.91;100.00;56616.03;5010798;28;20195;-69
2022/09/13 09:13:30;;;;;;;3.97;1.90;;;;;;;-142.91;100.00;56616.03;5008346;28;20203;-67
2022/09/13 09:16:02;;;;;;;4.45;3.92;;;;;;;-142.91;100.00;56616.03;5007751;28;20233;-68
2022/09/13 09:18:32;;;;;;;2.83;2.63;;;;;;;-142.91;100.00;56616.03;5008202;28;20211;-65
2022/09/13 09:21:02;;;;;;;3.60;3.30;;;;;;;-142.91;100.00;56616.03;5006502;28;20944;-68
2022/09/13 09:23:36;;;;;;;3.53;3.10;;;;;;;-142.91;100.00;56616.03;5008376;28;20961;-67
2022/09/13 09:26:15;;;;;;;15.63;4.53;;;;;;;-142.91;100.00;56616.03;5009746;28;21119;-68
2022/09/13 09:28:43;;;;;;;3.88;1.80;;;;;;;-142.91;100.00;56616.03;5009031;28;20273;-67
2022/09/13 09:31:16;;;;;;;2.20;2.10;;;;;;;-142.91;100.00;56616.03;5007578;28;20552;-68
2022/09/13 09:33:57;;;;;;;6.03;2.45;;;;;;;-142.91;100.00;56616.03;5006550;28;20331;-69
2022/09/13 09:36:36;;;;;;;6.03;2.35;;;;;;;-142.91;100.00;56616.03;5006888;28;20198;-70
2022/09/13 09:39:05;;;;;;;2.55;2.35;;;;;;;-142.91;100.00;56616.03;5008137;28;20264;-68
2022/09/13 09:41:37;;;;;;;2.60;2.40;;;;;;;-142.91;100.00;56616.03;5006559;28;20776;-68
2022/09/13 09:44:16;;;;;;;2.58;2.40;;;;;;;-142.91;100.00;56616.03;5005388;28;20244;-68
2022/09/13 09:46:46;;;;;;;2.10;1.90;;;;;;;-142.91;100.00;56616.03;5008009;28;22651;-68
2022/09/13 09:52:13;;;;;;;2.17;1.83;;;;;;;-142.91;100.00;56616.03;4971618;28;20592;-68
2022/09/13 09:54:40;;;;;;;2.55;2.45;;;;;;;-142.91;100.00;56616.03;5010241;28;20199;-67
2022/09/13 09:57:08;;;;;;;4.57;2.08;;;;;;;-142.91;100.00;56616.03;5009661;28;20260;-69
2022/09/13 09:59:36;;;;;;;1.83;1.73;;;;;;;-142.91;100.00;56616.03;5010026;28;20886;-69
2022/09/13 10:02:15;;;;;;;4.00;1.90;;;;;;;-142.91;100.00;56616.03;5008123;28;20195;-67
2022/09/13 10:04:42;;;;;;;3.35;2.28;;;;;;;-142.91;100.00;56616.03;5009617;28;20203;-67
2022/09/13 10:07:19;;;;;;;2.10;1.90;;;;;;;-142.91;100.00;56616.03;5010314;28;20628;-69
2022/09/13 10:09:57;;;;;;;2.38;2.28;;;;;;;-142.91;100.00;56616.03;5009627;28;20238;-68
2022/09/13 10:12:28;;;;;;;3.05;1.83;;;;;;;-142.91;100.00;56616.03;5008988;28;20302;-68
2022/09/13 10:15:05;;;;;;;2.35;2.17;;;;;;;-142.91;100.00;56616.03;5007961;28;20203;-68
2022/09/13 10:17:32;;;;;;;2.50;2.30;;;;;;;-142.91;100.00;56616.03;5009427;28;20198;-68
2022/09/13 10:20:02;;;;;;;2.00;1.90;;;;;;;-142.91;100.00;56616.03;5008965;28;20327;-67
2022/09/13 10:22:30;;;;;;;1.75;1.75;;;;;;;-142.91;100.00;56616.03;5010519;28;20299;-66
2022/09/13 10:25:14;;;;;;;6.95;2.38;;;;;;;-142.91;100.00;56616.03;5008315;28;20448;-68
2022/09/13 10:27:47;;;;;;;2.80;2.33;;;;;;;-142.91;100.00;56616.03;5009969;28;20269;-67
2022/09/13 10:30:35;;;;;;;2.50;2.15;;;;;;;-142.91;100.00;56616.03;5009925;28;20377;-68
2022/09/13 10:33:03;;;;;;;3.97;2.30;;;;;;;-142.91;100.00;56616.03;5010787;28;20203;-68
2022/09/13 10:35:30;;;;;;;4.28;2.40;;;;;;;-142.91;100.00;56616.03;5010050;28;20218;-70
2022/09/13 10:37:57;;;;;;;2.60;2.33;;;;;;;-142.91;100.00;56616.03;5009099;28;20225;-68
2022/09/13 10:40:28;;;;;;;2.00;1.83;;;;;;;-142.91;100.00;56616.03;5005917;28;20231;-69
2022/09/13 10:43:00;;;;;;;18.20;3.75;;;;;;;-142.91;100.00;56616.03;5009635;28;20238;-68
2022/09/13 10:45:29;;;;;;;51.00;7.15;;;;;;;-142.91;100.00;56616.03;5008468;28;20211;-67
2022/09/13 10:48:04;;;;;;;8.98;3.47;;;;;;;-142.91;100.00;56616.03;5009188;28;20294;-69
2022/09/13 10:50:32;;;;;;;4.95;2.15;;;;;;;-142.91;100.00;56616.03;5008925;28;20245;-68
2022/09/13 10:53:00;;;;;;;2.42;2.25;;;;;;;-142.91;100.00;56616.03;5008686;28;20214;-68
2022/09/13 10:55:35;;;;;;;3.00;1.88;;;;;;;-142.91;100.00;56616.03;5009086;28;20227;-69
2022/09/13 10:58:17;;;;;;;4.25;1.75;;;;;;;-142.91;100.00;56616.03;5008642;28;21638;-67
2022/09/13 11:01:22;;;;;;;1.80;1.70;;;;;;;-142.91;100.00;56616.03;5007095;28;20565;-66
2022/09/13 11:04:31;;;;;;;3.45;2.10;;;;;;;-142.91;100.00;56616.03;4948337;28;20302;-68
2022/09/13 11:07:10;;;;;;;2.25;2.15;;;;;;;-142.91;100.00;56616.03;4902352;28;20237;-69
2022/09/13 11:09:43;;;;;;;2.33;1.83;;;;;;;-142.91;100.00;56616.03;4996339;28;20198;-67
2022/09/13 11:12:18;;;;;;;1.73;1.50;;;;;;;-142.91;100.00;56616.03;5009105;28;21351;-67
2022/09/13 11:15:01;;;;;;;2.85;1.92;;;;;;;-142.91;100.00;56616.03;5007566;28;20216;-68
2022/09/13 11:17:47;;;;;;;2.30;1.70;;;;;;;-142.91;100.00;56616.03;5007551;28;20529;-67
2022/09/13 11:20:24;;;;;;;2.53;2.00;;;;;;;-142.91;100.00;56616.03;5007520;28;20222;-67
2022/09/13 11:23:08;;;;;;;2.75;1.95;;;;;;;-142.91;100.00;56616.03;5007710;28;20209;-70
2022/09/13 11:25:54;;;;;;;5.78;1.83;;;;;;;-142.91;100.00;56616.03;5008854;28;20912;-67
2022/09/13 11:28:29;;;;;;;2.05;1.95;;;;;;;-142.91;100.00;56616.03;5008322;28;21682;-67
2022/09/13 11:31:18;;;;;;;2.53;1.83;;;;;;;-142.91;100.00;56616.03;5007308;28;20268;-67